Terminal Aerodrome Forecast
Issued by NWS

Home | Current Version | Previous Version | Text Only | Print | Product List | Glossary On
Versions: 1 2 3 4 5 6 7 8 9 10 11 12 13 14 15 16 17
000
FTUS43 KSGF 282300
TAFBBG
TAF
KBBG 282320Z 2900/2924 11012G22KT P6SM SKC
     FM290300 13006KT P6SM SKC
     FM291100 15010KT P6SM SCT250 WS020/21035KT
     FM291400 16015KT P6SM SCT250
     FM291800 23010KT P6SM BKN250
     FM292100 27008KT P6SM BKN250=

USA.gov is the U.S. government's official web portal to all federal, state and local government web resources and services.